createdAt,value
2023-04-04T00:03:52.359Z,0
2023-04-04T00:08:58.508Z,0
2023-04-04T00:14:04.501Z,0
2023-04-04T00:19:10.821Z,0
2023-04-04T00:24:16.917Z,0
2023-04-04T00:29:22.964Z,0
2023-04-04T00:34:29.278Z,0
2023-04-04T00:39:35.250Z,0
2023-04-04T00:44:41.415Z,0
2023-04-04T00:49:47.716Z,0
2023-04-04T00:54:53.872Z,0
2023-04-04T00:59:59.864Z,0
2023-04-04T01:05:06.161Z,0
2023-04-04T01:10:12.333Z,0
2023-04-04T01:15:18.462Z,0
2023-04-04T01:20:24.596Z,0
2023-04-04T01:25:30.613Z,0
2023-04-04T01:30:36.750Z,0
2023-04-04T01:35:43.179Z,0
2023-04-04T01:40:49.286Z,0
2023-04-04T01:45:55.682Z,0
2023-04-04T01:51:01.814Z,0
2023-04-04T01:56:08.220Z,0
2023-04-04T02:01:14.552Z,0
2023-04-04T02:06:20.785Z,0
2023-04-04T02:11:27.025Z,0
2023-04-04T02:16:33.136Z,0
2023-04-04T02:21:39.535Z,0
2023-04-04T02:26:45.797Z,0
2023-04-04T02:31:51.925Z,0
2023-04-04T02:36:58.389Z,0
2023-04-04T02:42:04.739Z,0
2023-04-04T02:47:11.123Z,0
2023-04-04T02:52:17.792Z,0
2023-04-04T02:57:24.098Z,0
2023-04-04T03:02:30.736Z,0
2023-04-04T03:07:37.175Z,0
2023-04-04T03:12:43.493Z,0
2023-04-04T03:17:50.081Z,0
2023-04-04T03:22:56.549Z,0
2023-04-04T03:28:03.054Z,0
2023-04-04T03:33:09.584Z,0
2023-04-04T03:38:16.022Z,0
2023-04-04T03:43:22.464Z,0
2023-04-04T03:48:29.356Z,0
2023-04-04T03:53:36.456Z,0
2023-04-04T03:58:43.530Z,0
2023-04-04T04:03:50.426Z,0
2023-04-04T04:08:57.485Z,0
2023-04-04T04:14:04.373Z,0
2023-04-04T04:19:11.448Z,0
2023-04-04T04:24:18.545Z,0
2023-04-04T04:29:25.356Z,4
2023-04-04T04:34:32.344Z,4
2023-04-04T04:39:39.491Z,4
2023-04-04T04:44:46.451Z,8
2023-04-04T04:49:53.560Z,16
2023-04-04T04:55:01.286Z,20
2023-04-04T05:00:09.042Z,20
2023-04-04T05:05:16.931Z,24
2023-04-04T05:10:24.675Z,28
2023-04-04T05:15:32.709Z,32
2023-04-04T05:20:40.359Z,36
2023-04-04T05:25:48.325Z,40
2023-04-04T05:30:56.049Z,40
2023-04-04T05:36:03.824Z,44
2023-04-04T05:41:11.791Z,48
2023-04-04T05:46:19.499Z,48
2023-04-04T05:51:27.387Z,48
2023-04-04T05:56:35.305Z,52
2023-04-04T06:02:04.493Z,56
2023-04-04T06:07:12.473Z,56
2023-04-04T06:12:20.185Z,56
2023-04-04T06:17:27.981Z,60
2023-04-04T06:22:35.861Z,64
2023-04-04T06:27:43.789Z,68
2023-04-04T06:32:51.360Z,68
2023-04-04T06:37:59.196Z,68
2023-04-04T06:43:07.052Z,72
2023-04-04T06:48:14.897Z,72
2023-04-04T06:53:22.680Z,76
2023-04-04T06:58:30.505Z,76
2023-04-04T07:03:38.332Z,84
2023-04-04T07:09:07.613Z,84
2023-04-04T07:14:15.567Z,92
2023-04-04T07:24:31.163Z,92
2023-04-04T07:29:38.914Z,96
2023-04-04T07:34:46.754Z,96
2023-04-04T07:39:54.556Z,96
2023-04-04T07:45:02.468Z,100
2023-04-04T07:50:10.215Z,100
2023-04-04T07:55:18.051Z,100
2023-04-04T08:00:25.989Z,104
2023-04-04T08:05:33.694Z,108
2023-04-04T08:10:41.703Z,108
2023-04-04T08:15:47.968Z,88
2023-04-04T08:20:54.057Z,116
2023-04-04T08:26:00.155Z,120
2023-04-04T08:31:06.189Z,120
2023-04-04T08:36:12.271Z,88
2023-04-04T08:41:18.470Z,108
2023-04-04T08:46:24.448Z,128
2023-04-04T08:51:30.553Z,144
2023-04-04T08:56:36.680Z,144
2023-04-04T09:01:42.722Z,144
2023-04-04T09:06:48.820Z,156
2023-04-04T09:11:54.948Z,156
2023-04-04T09:17:00.988Z,148
2023-04-04T09:22:07.073Z,128
2023-04-04T09:27:13.172Z,192
2023-04-04T09:32:19.261Z,160
2023-04-04T09:37:25.345Z,136
2023-04-04T09:42:31.416Z,188
2023-04-04T09:47:37.522Z,224
2023-04-04T09:52:43.735Z,248
2023-04-04T09:57:49.790Z,204
2023-04-04T10:02:55.790Z,220
2023-04-04T10:08:02.036Z,216
2023-04-04T10:13:08.157Z,172
2023-04-04T10:18:14.054Z,148
2023-04-04T10:23:20.194Z,152
2023-04-04T10:28:26.358Z,200
2023-04-04T10:33:32.608Z,308
2023-04-04T10:38:38.662Z,212
2023-04-04T10:43:44.846Z,232
2023-04-04T10:48:50.974Z,172
2023-04-04T10:53:57.105Z,268
2023-04-04T10:59:03.289Z,268
2023-04-04T11:04:09.409Z,268
2023-04-04T11:09:15.552Z,392
2023-04-04T11:14:21.718Z,240
2023-04-04T11:19:27.860Z,196
2023-04-04T11:24:34.021Z,244
2023-04-04T11:29:40.278Z,296
2023-04-04T11:34:46.545Z,276
2023-04-04T11:39:52.813Z,228
2023-04-04T11:44:59.060Z,372
2023-04-04T11:50:05.327Z,348
2023-04-04T11:55:11.594Z,336
2023-04-04T12:00:17.879Z,240
2023-04-04T12:05:24.112Z,248
2023-04-04T12:10:30.547Z,356
2023-04-04T12:15:36.689Z,332
2023-04-04T12:20:42.988Z,324
2023-04-04T12:25:49.249Z,232
2023-04-04T12:30:55.556Z,304
2023-04-04T12:36:01.933Z,304
2023-04-04T12:41:08.522Z,360
2023-04-04T12:46:15.090Z,240
2023-04-04T12:51:21.318Z,264
2023-04-04T12:56:27.975Z,344
2023-04-04T13:01:34.381Z,412
2023-04-04T13:06:40.897Z,536
2023-04-04T13:11:47.318Z,580
2023-04-04T13:16:53.837Z,1624
2023-04-04T13:22:00.434Z,952
2023-04-04T13:27:06.733Z,280
2023-04-04T13:32:13.213Z,456
2023-04-04T13:37:19.706Z,328
2023-04-04T13:42:26.755Z,1644
2023-04-04T13:47:33.739Z,784
2023-04-04T13:52:40.564Z,876
2023-04-04T13:57:47.576Z,2752
2023-04-04T14:02:54.729Z,2404
2023-04-04T14:08:01.585Z,2836
2023-04-04T14:13:08.762Z,3728
2023-04-04T14:18:15.789Z,3392
2023-04-04T14:23:22.800Z,844
2023-04-04T14:28:29.813Z,776
2023-04-04T14:33:36.818Z,768
2023-04-04T14:38:43.778Z,880
2023-04-04T14:43:50.790Z,1796
2023-04-04T14:48:58.459Z,1732
2023-04-04T14:54:06.464Z,1588
2023-04-04T14:59:14.276Z,1520
2023-04-04T15:04:22.111Z,1568
2023-04-04T15:09:29.914Z,1488
2023-04-04T15:14:37.605Z,1236
2023-04-04T15:19:45.597Z,1116
2023-04-04T15:24:53.423Z,1040
2023-04-04T15:30:01.333Z,1100
2023-04-04T15:35:09.119Z,1060
2023-04-04T15:40:16.737Z,1020
2023-04-04T15:45:24.747Z,920
2023-04-04T15:50:32.380Z,844
2023-04-04T15:55:40.351Z,696
2023-04-04T16:00:48.035Z,264
2023-04-04T16:05:54.528Z,224
2023-04-04T16:11:00.701Z,212
2023-04-04T16:16:06.794Z,164
2023-04-04T16:21:12.953Z,144
2023-04-04T16:26:19.123Z,116
2023-04-04T16:31:25.080Z,92
2023-04-04T16:36:31.394Z,32
2023-04-04T16:41:37.565Z,32
2023-04-04T16:46:43.538Z,40
2023-04-04T16:51:49.830Z,32
2023-04-04T16:56:55.981Z,24
2023-04-04T17:02:02.152Z,20
2023-04-04T17:07:08.324Z,16
2023-04-04T17:12:14.463Z,16
2023-04-04T17:17:20.604Z,16
2023-04-04T17:22:26.679Z,16
2023-04-04T17:27:32.861Z,12
2023-04-04T17:32:38.886Z,8
2023-04-04T17:37:45.158Z,8
2023-04-04T17:42:51.190Z,4
2023-04-04T17:47:57.555Z,4
2023-04-04T17:53:03.628Z,0
2023-04-04T17:58:09.815Z,0
2023-04-04T18:03:15.935Z,0
2023-04-04T18:08:22.086Z,0
2023-04-04T18:13:28.364Z,0
2023-04-04T18:18:34.616Z,0
2023-04-04T18:23:40.908Z,0
2023-04-04T18:28:46.121Z,0
2023-04-04T18:33:52.072Z,0
2023-04-04T18:38:58.269Z,0
2023-04-04T18:44:04.237Z,0
2023-04-04T18:49:10.480Z,0
2023-04-04T18:54:16.543Z,0
2023-04-04T18:59:22.733Z,0
2023-04-04T19:04:28.815Z,0
2023-04-04T19:09:34.813Z,0
2023-04-04T19:14:40.990Z,0
2023-04-04T19:19:46.894Z,0
2023-04-04T19:24:53.143Z,0
2023-04-04T19:29:59.220Z,0
2023-04-04T19:35:05.271Z,0
2023-04-04T19:40:11.338Z,0
2023-04-04T19:45:17.522Z,0
2023-04-04T19:50:23.381Z,0
2023-04-04T19:55:29.612Z,0
2023-04-04T20:00:35.747Z,0
2023-04-04T20:05:41.651Z,0
2023-04-04T20:10:47.794Z,0
2023-04-04T20:15:54.032Z,0
2023-04-04T20:21:00.063Z,0
2023-04-04T20:26:06.041Z,0
2023-04-04T20:31:12.093Z,0
2023-04-04T20:36:18.390Z,0
2023-04-04T20:41:24.575Z,0
2023-04-04T20:46:30.542Z,0
2023-04-04T20:51:36.889Z,0
2023-04-04T20:56:42.972Z,0
2023-04-04T21:01:49.193Z,0
2023-04-04T21:06:55.289Z,0
2023-04-04T21:12:01.307Z,0
2023-04-04T21:17:07.625Z,0
2023-04-04T21:22:13.605Z,0
2023-04-04T21:27:19.846Z,0
2023-04-04T21:32:26.094Z,0
2023-04-04T21:37:32.238Z,0
2023-04-04T21:42:38.324Z,0
2023-04-04T21:47:44.670Z,0
2023-04-04T21:52:49.977Z,0
2023-04-04T21:57:56.025Z,0
2023-04-04T22:03:02.163Z,0
2023-04-04T22:08:08.242Z,0
2023-04-04T22:13:14.177Z,0
2023-04-04T22:18:20.361Z,0
2023-04-04T22:23:26.492Z,0
2023-04-04T22:28:32.569Z,0
2023-04-04T22:33:38.705Z,0
2023-04-04T22:38:44.672Z,0
2023-04-04T22:43:50.794Z,0
2023-04-04T22:48:56.990Z,0
2023-04-04T22:54:03.138Z,0
2023-04-04T22:59:08.979Z,0
2023-04-04T23:04:15.208Z,0
2023-04-04T23:09:21.291Z,0
2023-04-04T23:14:27.416Z,0
2023-04-04T23:19:33.474Z,0
2023-04-04T23:24:39.577Z,0
2023-04-04T23:29:45.626Z,0
2023-04-04T23:34:51.756Z,0
2023-04-04T23:39:57.843Z,0
2023-04-04T23:45:03.926Z,0
2023-04-04T23:50:09.860Z,0
2023-04-04T23:55:16.135Z,0
